Time;durP1;ratioP1;P1;durP2;ratioP2;P2;SDS_P1;SDS_P2;PMS_P1;PMS_P2;Temp;Humidity;BMP_temperature;BMP_pressure;BME280_temperature;BME280_humidity;BME280_pressure;Samples;Min_cycle;Max_cycle;Signal;HPM_P1;HPM_P2
2022/11/04 00:00:05;;;;;;;33.60;19.50;;;;;;;;;;4989782;28;20263;-82
2022/11/04 00:02:31;;;;;;;31.87;18.03;;;;;;;;;;4989725;28;20199;-82
2022/11/04 00:13:29;;;;;;;31.77;18.83;;;;;;;;;;4990509;28;20545;-81
2022/11/04 00:18:40;;;;;;;36.10;19.33;;;;;;;;;;4976794;28;20191;-82
2022/11/04 00:29:27;;;;;;;28.60;17.87;;;;;;;;;;4950989;28;20200;-82
2022/11/04 00:34:45;;;;;;;34.13;19.97;;;;;;;;;;4943686;29;20567;-83
2022/11/04 00:37:11;;;;;;;34.97;19.27;;;;;;;;;;4948358;28;20200;-82
2022/11/04 00:39:38;;;;;;;34.87;18.77;;;;;;;;;;4951260;28;20231;-83
2022/11/04 00:42:04;;;;;;;33.70;17.77;;;;;;;;;;4952046;29;20725;-83
2022/11/04 00:44:30;;;;;;;30.73;18.10;;;;;;;;;;4924473;29;20703;-83
2022/11/04 00:46:56;;;;;;;34.43;18.07;;;;;;;;;;4945087;29;20200;-83
2022/11/04 00:49:22;;;;;;;28.03;17.90;;;;;;;;;;4936948;29;20218;-83
2022/11/04 00:51:48;;;;;;;38.33;19.27;;;;;;;;;;4951507;28;20716;-83
2022/11/04 00:54:14;;;;;;;34.37;18.53;;;;;;;;;;4951688;28;20189;-81
2022/11/04 00:56:40;;;;;;;29.77;17.50;;;;;;;;;;4951990;29;20181;-81
2022/11/04 00:59:07;;;;;;;30.60;17.20;;;;;;;;;;4950964;28;20197;-81
2022/11/04 01:01:33;;;;;;;33.10;17.97;;;;;;;;;;4951437;28;20193;-83
2022/11/04 01:03:59;;;;;;;24.47;17.10;;;;;;;;;;4946836;29;20272;-82
2022/11/04 01:06:26;;;;;;;33.03;18.23;;;;;;;;;;4973838;28;20188;-81
2022/11/04 01:08:55;;;;;;;29.60;18.07;;;;;;;;;;4980155;28;20645;-82
2022/11/04 01:11:21;;;;;;;33.30;17.50;;;;;;;;;;4982797;28;20283;-82
2022/11/04 01:13:50;;;;;;;32.47;17.03;;;;;;;;;;4992534;28;20288;-83
2022/11/04 01:16:16;;;;;;;29.40;17.73;;;;;;;;;;4991971;28;20241;-83
2022/11/04 01:18:42;;;;;;;34.17;17.70;;;;;;;;;;4993854;28;20223;-81
2022/11/04 01:21:10;;;;;;;24.33;16.43;;;;;;;;;;4994738;28;20242;-81
2022/11/04 01:23:36;;;;;;;31.07;17.23;;;;;;;;;;5010271;28;20562;-82
2022/11/04 01:26:21;;;;;;;27.40;17.63;;;;;;;;;;5007211;28;20215;-82
2022/11/04 01:28:47;;;;;;;31.43;17.33;;;;;;;;;;4987525;28;20649;-83
2022/11/04 01:31:20;;;;;;;27.47;17.43;;;;;;;;;;5010196;28;20176;-80
2022/11/04 01:33:46;;;;;;;30.53;18.00;;;;;;;;;;4975360;28;20283;-82
2022/11/04 01:36:12;;;;;;;29.27;17.40;;;;;;;;;;4991695;28;20212;-82
2022/11/04 01:38:38;;;;;;;28.37;17.67;;;;;;;;;;5006184;28;20196;-83
2022/11/04 01:41:04;;;;;;;34.03;17.47;;;;;;;;;;5005041;28;20184;-82
2022/11/04 01:43:49;;;;;;;26.40;17.43;;;;;;;;;;4992566;28;20187;-83
2022/11/04 01:46:37;;;;;;;29.83;16.80;;;;;;;;;;4993825;28;20188;-82
2022/11/04 01:49:14;;;;;;;33.03;18.20;;;;;;;;;;4979074;28;20191;-82
2022/11/04 01:51:41;;;;;;;27.40;17.53;;;;;;;;;;4993068;28;20226;-83
2022/11/04 01:54:08;;;;;;;31.43;18.60;;;;;;;;;;4994194;28;20179;-83
2022/11/04 01:56:34;;;;;;;32.67;17.73;;;;;;;;;;4977390;28;20554;-80
2022/11/04 01:59:03;;;;;;;25.00;17.27;;;;;;;;;;4987534;28;20179;-81
2022/11/04 02:01:29;;;;;;;33.93;17.43;;;;;;;;;;5006534;28;20283;-82
2022/11/04 02:06:46;;;;;;;28.70;16.40;;;;;;;;;;4994624;28;20195;-82
2022/11/04 02:09:12;;;;;;;25.83;16.83;;;;;;;;;;4994177;28;20644;-81
2022/11/04 02:14:23;;;;;;;26.60;16.63;;;;;;;;;;4991378;28;20218;-83
2022/11/04 02:16:49;;;;;;;25.07;16.60;;;;;;;;;;4984261;28;20584;-81
2022/11/04 02:19:30;;;;;;;26.67;16.10;;;;;;;;;;4989762;28;20596;-82
2022/11/04 02:22:13;;;;;;;27.20;16.17;;;;;;;;;;4980377;28;20202;-82
2022/11/04 02:24:57;;;;;;;26.93;15.87;;;;;;;;;;4993874;28;20210;-83
2022/11/04 02:27:38;;;;;;;26.67;16.27;;;;;;;;;;4993158;28;20274;-83
2022/11/04 02:30:07;;;;;;;24.03;15.20;;;;;;;;;;4993864;28;20179;-84
2022/11/04 02:32:33;;;;;;;21.03;15.97;;;;;;;;;;4993707;28;20195;-82
2022/11/04 02:35:06;;;;;;;27.63;15.97;;;;;;;;;;4994439;28;20194;-82
2022/11/04 02:37:44;;;;;;;24.93;15.50;;;;;;;;;;5005468;28;20189;-82
2022/11/04 02:40:25;;;;;;;22.53;15.27;;;;;;;;;;4981678;28;20520;-83
2022/11/04 02:42:58;;;;;;;20.33;14.63;;;;;;;;;;4991604;28;20221;-81
2022/11/04 02:45:37;;;;;;;26.33;16.90;;;;;;;;;;4989629;28;20287;-83
2022/11/04 02:48:24;;;;;;;26.47;15.70;;;;;;;;;;4999791;28;20188;-83
2022/11/04 02:50:55;;;;;;;25.40;16.93;;;;;;;;;;4991769;28;20195;-83
2022/11/04 02:53:38;;;;;;;32.83;16.67;;;;;;;;;;4993524;28;20190;-83
2022/11/04 02:56:05;;;;;;;27.20;15.40;;;;;;;;;;5006471;28;20191;-82
2022/11/04 02:58:42;;;;;;;22.87;14.20;;;;;;;;;;4999712;28;20192;-81
2022/11/04 03:01:11;;;;;;;24.33;16.33;;;;;;;;;;4993588;28;20254;-83
2022/11/04 03:03:39;;;;;;;21.27;15.33;;;;;;;;;;4992754;28;20180;-82
2022/11/04 03:06:07;;;;;;;22.07;14.57;;;;;;;;;;4991151;28;20207;-82
2022/11/04 03:08:35;;;;;;;24.57;15.97;;;;;;;;;;4993944;28;20183;-82
2022/11/04 03:11:21;;;;;;;26.30;15.50;;;;;;;;;;4993845;28;20576;-83
2022/11/04 03:14:06;;;;;;;22.83;15.43;;;;;;;;;;4984209;28;20192;-83
2022/11/04 03:16:45;;;;;;;28.60;15.40;;;;;;;;;;4977293;28;20652;-82
2022/11/04 03:19:19;;;;;;;22.60;13.87;;;;;;;;;;5008288;28;20190;-81
2022/11/04 03:22:17;;;;;;;21.70;15.13;;;;;;;;;;4991815;28;20234;-82
2022/11/04 03:24:44;;;;;;;23.50;15.73;;;;;;;;;;4974475;28;20253;-81
2022/11/04 03:27:20;;;;;;;24.10;15.50;;;;;;;;;;4975636;28;20192;-81
2022/11/04 03:30:04;;;;;;;27.07;15.63;;;;;;;;;;4991930;28;20222;-84
2022/11/04 03:32:36;;;;;;;26.43;15.53;;;;;;;;;;4990894;28;20194;-82
2022/11/04 03:35:02;;;;;;;25.00;15.33;;;;;;;;;;4980069;28;20290;-81
2022/11/04 03:37:28;;;;;;;22.80;15.30;;;;;;;;;;4990574;28;20196;-81
2022/11/04 03:39:55;;;;;;;23.00;15.67;;;;;;;;;;4991513;28;20188;-82
2022/11/04 03:42:21;;;;;;;25.63;14.37;;;;;;;;;;4992205;28;20180;-84
2022/11/04 03:44:47;;;;;;;22.33;13.93;;;;;;;;;;4976270;28;20246;-81
2022/11/04 03:47:13;;;;;;;24.70;15.70;;;;;;;;;;4976401;28;20196;-82
2022/11/04 03:49:39;;;;;;;24.07;15.07;;;;;;;;;;4991987;28;20207;-83
2022/11/04 03:52:05;;;;;;;22.50;14.77;;;;;;;;;;4992047;28;20223;-81
2022/11/04 03:54:34;;;;;;;23.37;14.50;;;;;;;;;;4992295;28;20672;-81
2022/11/04 03:57:11;;;;;;;26.37;13.47;;;;;;;;;;4976433;28;20191;-83
2022/11/04 03:59:56;;;;;;;23.13;14.07;;;;;;;;;;4976772;28;20215;-81
2022/11/04 04:02:30;;;;;;;22.67;14.13;;;;;;;;;;5002201;28;20180;-82
2022/11/04 04:04:59;;;;;;;24.30;14.10;;;;;;;;;;4985022;28;20207;-82
2022/11/04 04:07:28;;;;;;;23.73;14.43;;;;;;;;;;4990069;28;21040;-83
2022/11/04 04:10:37;;;;;;;26.70;13.83;;;;;;;;;;4992364;28;20202;-83
2022/11/04 04:12:57;;;;;;;20.70;13.47;;;;;;;;;;4991855;28;20278;-83
2022/11/04 04:15:27;;;;;;;25.23;14.17;;;;;;;;;;4992174;28;20640;-84
2022/11/04 04:18:00;;;;;;;19.97;12.60;;;;;;;;;;4978001;28;20195;-80
2022/11/04 04:20:28;;;;;;;20.30;13.67;;;;;;;;;;5010276;28;20219;-82
2022/11/04 04:22:57;;;;;;;21.80;13.67;;;;;;;;;;5008539;28;20243;-82
2022/11/04 04:28:12;;;;;;;20.47;13.07;;;;;;;;;;5001654;28;20186;-82
2022/11/04 04:30:40;;;;;;;21.07;12.57;;;;;;;;;;5015808;28;20153;-83
2022/11/04 04:33:08;;;;;;;20.67;13.37;;;;;;;;;;5017029;28;20180;-81
2022/11/04 04:35:42;;;;;;;20.00;11.73;;;;;;;;;;5007720;28;20191;-82
2022/11/04 04:46:33;;;;;;;19.47;12.50;;;;;;;;;;5019365;28;20190;-84
2022/11/04 04:49:06;;;;;;;18.70;11.47;;;;;;;;;;5018125;28;20180;-83
2022/11/04 04:51:32;;;;;;;19.83;12.13;;;;;;;;;;5014857;28;20178;-81
2022/11/04 04:53:58;;;;;;;20.80;12.13;;;;;;;;;;5016970;28;20246;-84
2022/11/04 04:56:24;;;;;;;22.47;11.47;;;;;;;;;;5003959;28;20195;-84
2022/11/04 04:58:50;;;;;;;21.53;11.97;;;;;;;;;;5010519;28;20337;-81
2022/11/04 05:01:16;;;;;;;17.53;12.20;;;;;;;;;;4987002;28;20233;-82
2022/11/04 05:03:42;;;;;;;17.23;11.73;;;;;;;;;;4997711;28;20184;-83
2022/11/04 05:06:08;;;;;;;18.27;12.30;;;;;;;;;;4997434;28;20583;-82
2022/11/04 05:08:34;;;;;;;19.90;11.77;;;;;;;;;;4995520;28;20188;-80
2022/11/04 05:11:00;;;;;;;20.60;11.90;;;;;;;;;;5009701;28;20216;-81
2022/11/04 05:13:28;;;;;;;15.23;10.87;;;;;;;;;;4982436;28;20716;-81
2022/11/04 05:15:54;;;;;;;22.60;11.93;;;;;;;;;;4995280;28;20661;-81
2022/11/04 05:18:20;;;;;;;20.13;11.50;;;;;;;;;;4984313;28;20186;-83
2022/11/04 05:20:46;;;;;;;21.27;11.53;;;;;;;;;;4993323;28;20227;-80
2022/11/04 05:23:13;;;;;;;19.80;11.43;;;;;;;;;;4995545;28;20184;-81
2022/11/04 05:25:40;;;;;;;19.90;11.20;;;;;;;;;;4992102;28;20211;-80
2022/11/04 05:28:06;;;;;;;20.10;11.23;;;;;;;;;;4995422;28;20227;-80
2022/11/04 05:30:32;;;;;;;19.37;11.43;;;;;;;;;;4993930;28;20258;-79
2022/11/04 05:32:58;;;;;;;16.63;10.73;;;;;;;;;;4994011;28;20187;-82
2022/11/04 05:35:24;;;;;;;19.10;11.37;;;;;;;;;;4995146;28;20210;-80
2022/11/04 05:37:50;;;;;;;16.13;10.93;;;;;;;;;;4992371;28;20531;-80
2022/11/04 05:40:16;;;;;;;17.20;11.07;;;;;;;;;;4995226;28;20599;-80
2022/11/04 05:42:42;;;;;;;16.30;11.47;;;;;;;;;;4994770;28;20180;-80
2022/11/04 05:45:08;;;;;;;22.43;11.20;;;;;;;;;;4995827;28;20207;-80
2022/11/04 05:47:35;;;;;;;16.40;10.87;;;;;;;;;;5010107;28;20660;-81
2022/11/04 05:50:01;;;;;;;19.27;11.10;;;;;;;;;;4985310;28;20231;-81
2022/11/04 05:52:27;;;;;;;15.20;10.53;;;;;;;;;;4986799;28;20196;-82
2022/11/04 05:54:53;;;;;;;19.93;11.37;;;;;;;;;;4994075;28;20687;-82
2022/11/04 05:57:19;;;;;;;19.17;11.77;;;;;;;;;;4995029;28;20176;-82
2022/11/04 05:59:45;;;;;;;17.67;11.00;;;;;;;;;;5009668;28;20191;-81
2022/11/04 06:02:11;;;;;;;19.53;11.40;;;;;;;;;;4994395;28;20180;-80
2022/11/04 06:04:37;;;;;;;17.07;11.30;;;;;;;;;;5008908;28;20226;-82
2022/11/04 06:07:03;;;;;;;17.77;10.83;;;;;;;;;;5003861;28;20665;-81
2022/11/04 06:09:38;;;;;;;14.77;10.17;;;;;;;;;;4982284;28;20223;-83
2022/11/04 06:12:14;;;;;;;19.00;10.10;;;;;;;;;;4992879;28;20547;-80
2022/11/04 06:14:41;;;;;;;19.13;11.20;;;;;;;;;;4993594;28;20191;-81
2022/11/04 06:17:07;;;;;;;19.10;10.30;;;;;;;;;;4993664;28;20195;-80
2022/11/04 06:19:33;;;;;;;17.77;11.03;;;;;;;;;;4991924;28;20257;-80
2022/11/04 06:21:59;;;;;;;18.13;10.17;;;;;;;;;;4991398;28;20673;-80
2022/11/04 06:24:25;;;;;;;19.90;10.50;;;;;;;;;;4990625;28;20211;-81
2022/11/04 06:26:51;;;;;;;18.10;10.47;;;;;;;;;;5007971;28;20199;-80
2022/11/04 06:29:18;;;;;;;16.43;9.93;;;;;;;;;;4984637;28;20195;-80
2022/11/04 06:31:44;;;;;;;14.80;10.47;;;;;;;;;;4980186;28;20553;-82
2022/11/04 06:34:10;;;;;;;18.60;11.33;;;;;;;;;;5008436;28;20701;-79
2022/11/04 06:36:36;;;;;;;19.47;10.47;;;;;;;;;;4988777;28;20180;-80
2022/11/04 06:39:04;;;;;;;15.10;10.57;;;;;;;;;;4988853;28;20188;-81
2022/11/04 06:41:30;;;;;;;21.57;10.57;;;;;;;;;;4992255;28;20191;-82
2022/11/04 06:43:56;;;;;;;19.57;10.50;;;;;;;;;;5002230;28;20224;-79
2022/11/04 06:46:25;;;;;;;19.17;10.20;;;;;;;;;;5005841;28;20320;-82
2022/11/04 06:48:51;;;;;;;15.73;10.03;;;;;;;;;;5005670;28;20180;-79
2022/11/04 06:51:18;;;;;;;16.13;10.30;;;;;;;;;;4992175;28;20271;-79
2022/11/04 06:53:45;;;;;;;15.60;10.97;;;;;;;;;;4987191;28;20195;-80
2022/11/04 06:56:11;;;;;;;16.40;9.50;;;;;;;;;;5007308;28;20192;-82
2022/11/04 06:58:37;;;;;;;15.00;10.70;;;;;;;;;;4992225;28;20180;-81
2022/11/04 07:01:03;;;;;;;17.20;10.13;;;;;;;;;;4990801;28;20601;-81
2022/11/04 07:03:29;;;;;;;17.87;10.03;;;;;;;;;;4990939;28;20271;-82
2022/11/04 07:05:55;;;;;;;17.57;9.80;;;;;;;;;;5006402;28;20307;-81
2022/11/04 07:08:21;;;;;;;16.37;10.03;;;;;;;;;;5006583;28;20192;-81
2022/11/04 07:10:47;;;;;;;15.87;10.83;;;;;;;;;;4991303;28;20287;-81
2022/11/04 07:13:13;;;;;;;13.73;9.70;;;;;;;;;;4989980;28;20638;-80
2022/11/04 07:15:39;;;;;;;15.20;9.40;;;;;;;;;;4987512;28;20621;-81
2022/11/04 07:18:05;;;;;;;17.60;9.97;;;;;;;;;;4987627;28;20188;-82
2022/11/04 07:20:38;;;;;;;12.57;10.47;;;;;;;;;;4986643;28;20281;-82
2022/11/04 07:23:05;;;;;;;17.47;10.60;;;;;;;;;;4987859;28;20194;-81
2022/11/04 07:25:31;;;;;;;18.60;11.00;;;;;;;;;;4975426;28;20216;-81
2022/11/04 07:27:57;;;;;;;13.93;9.97;;;;;;;;;;4989537;28;20249;-81
2022/11/04 07:30:23;;;;;;;19.70;10.07;;;;;;;;;;4984071;28;20172;-80
2022/11/04 07:32:49;;;;;;;20.60;10.90;;;;;;;;;;5000298;28;20223;-80
2022/11/04 07:35:15;;;;;;;19.20;10.57;;;;;;;;;;4980782;28;20246;-81
2022/11/04 07:37:41;;;;;;;16.37;11.10;;;;;;;;;;5006849;28;20183;-80
2022/11/04 07:40:07;;;;;;;17.20;9.97;;;;;;;;;;4990775;28;20175;-80
2022/11/04 07:42:33;;;;;;;20.60;10.80;;;;;;;;;;4990092;28;20175;-81
2022/11/04 07:44:59;;;;;;;20.10;11.30;;;;;;;;;;4990950;28;20215;-81
2022/11/04 07:47:26;;;;;;;20.33;10.90;;;;;;;;;;4991410;28;20192;-81
2022/11/04 07:49:52;;;;;;;19.13;10.90;;;;;;;;;;5003766;28;20180;-83
2022/11/04 07:52:18;;;;;;;17.47;10.60;;;;;;;;;;4972646;28;20184;-82
2022/11/04 07:54:44;;;;;;;17.10;9.87;;;;;;;;;;4991364;28;20205;-82
2022/11/04 07:57:10;;;;;;;16.30;10.63;;;;;;;;;;4988672;28;20194;-81
2022/11/04 07:59:36;;;;;;;18.83;10.97;;;;;;;;;;5002788;28;20192;-81
2022/11/04 08:02:02;;;;;;;15.33;10.23;;;;;;;;;;4980934;28;20184;-81
2022/11/04 08:04:28;;;;;;;17.03;10.80;;;;;;;;;;5005998;28;20671;-82
2022/11/04 08:06:54;;;;;;;17.50;9.97;;;;;;;;;;5003830;28;20640;-84
2022/11/04 08:09:20;;;;;;;17.50;10.83;;;;;;;;;;4987719;28;20192;-82
2022/11/04 08:11:46;;;;;;;14.37;10.60;;;;;;;;;;4989423;28;20614;-82
2022/11/04 08:14:12;;;;;;;16.57;10.70;;;;;;;;;;5006443;28;20195;-82
2022/11/04 08:16:38;;;;;;;17.27;10.70;;;;;;;;;;4994032;28;20187;-81
2022/11/04 08:19:04;;;;;;;14.43;10.03;;;;;;;;;;4979944;28;20181;-80
2022/11/04 08:21:31;;;;;;;14.10;10.37;;;;;;;;;;4991787;28;20230;-83
2022/11/04 08:23:57;;;;;;;16.47;11.60;;;;;;;;;;4981966;28;20192;-83
2022/11/04 08:26:23;;;;;;;16.47;10.13;;;;;;;;;;4979383;28;20245;-82
2022/11/04 08:28:50;;;;;;;17.93;11.13;;;;;;;;;;4992511;28;20194;-81
2022/11/04 08:31:18;;;;;;;16.90;10.67;;;;;;;;;;4980273;28;20172;-80
2022/11/04 08:33:44;;;;;;;19.70;11.03;;;;;;;;;;4994867;28;20278;-83
2022/11/04 08:36:17;;;;;;;18.07;11.07;;;;;;;;;;5001895;28;20196;-81
2022/11/04 08:38:44;;;;;;;15.97;10.40;;;;;;;;;;4983398;28;20526;-82
2022/11/04 08:41:11;;;;;;;15.10;11.23;;;;;;;;;;4985180;28;20279;-81
2022/11/04 08:43:37;;;;;;;17.00;10.77;;;;;;;;;;4992918;28;20186;-82
2022/11/04 08:46:05;;;;;;;20.67;12.27;;;;;;;;;;4993640;28;20749;-83
2022/11/04 08:48:31;;;;;;;19.37;12.40;;;;;;;;;;4996161;28;20233;-82
2022/11/04 08:50:57;;;;;;;18.47;12.13;;;;;;;;;;5006521;28;20197;-82
2022/11/04 08:53:24;;;;;;;18.07;12.00;;;;;;;;;;4977219;28;20181;-80
2022/11/04 08:55:50;;;;;;;16.83;11.77;;;;;;;;;;4978866;28;20245;-82
2022/11/04 08:58:17;;;;;;;17.33;11.70;;;;;;;;;;4979504;28;20203;-81
2022/11/04 09:00:44;;;;;;;17.93;12.10;;;;;;;;;;4983574;28;20242;-81
2022/11/04 09:03:10;;;;;;;17.57;12.00;;;;;;;;;;4995279;28;20230;-80
2022/11/04 09:05:43;;;;;;;21.17;11.97;;;;;;;;;;4991521;28;20231;-81
2022/11/04 09:08:14;;;;;;;18.57;11.90;;;;;;;;;;5004721;28;20195;-80
2022/11/04 09:10:41;;;;;;;16.87;11.27;;;;;;;;;;4980354;28;20188;-80
2022/11/04 09:13:09;;;;;;;20.90;11.70;;;;;;;;;;4982521;28;20173;-81
2022/11/04 09:15:35;;;;;;;18.43;10.83;;;;;;;;;;4990494;28;20183;-81
2022/11/04 09:18:01;;;;;;;17.20;11.53;;;;;;;;;;4992246;28;20585;-79
2022/11/04 09:20:27;;;;;;;16.00;11.97;;;;;;;;;;4986746;28;20228;-79
2022/11/04 09:22:55;;;;;;;18.30;11.83;;;;;;;;;;4978610;28;20195;-80
2022/11/04 09:25:21;;;;;;;17.43;12.10;;;;;;;;;;4991876;28;20204;-79
2022/11/04 09:27:47;;;;;;;17.27;12.30;;;;;;;;;;4992619;28;20212;-79
2022/11/04 09:30:13;;;;;;;17.97;11.93;;;;;;;;;;5008108;28;20214;-79
2022/11/04 09:32:39;;;;;;;20.33;11.93;;;;;;;;;;5003554;28;20190;-79
2022/11/04 09:35:05;;;;;;;21.13;11.77;;;;;;;;;;4980864;28;20553;-79
2022/11/04 09:37:31;;;;;;;18.10;11.73;;;;;;;;;;5008486;28;20188;-79
2022/11/04 09:39:57;;;;;;;18.30;11.90;;;;;;;;;;4991499;28;20183;-79
2022/11/04 09:42:27;;;;;;;16.60;11.17;;;;;;;;;;4989081;28;20187;-79
2022/11/04 09:45:04;;;;;;;17.63;11.53;;;;;;;;;;4989383;28;20199;-79
2022/11/04 09:47:32;;;;;;;20.73;11.83;;;;;;;;;;4991234;28;20610;-80
2022/11/04 09:49:59;;;;;;;18.90;11.30;;;;;;;;;;4983551;28;20544;-78
2022/11/04 09:52:37;;;;;;;21.53;12.33;;;;;;;;;;4991549;28;20203;-79
2022/11/04 09:55:05;;;;;;;18.20;11.30;;;;;;;;;;4992089;28;20186;-79
2022/11/04 09:57:32;;;;;;;23.37;12.17;;;;;;;;;;4992974;28;20187;-79
2022/11/04 09:59:58;;;;;;;18.67;11.20;;;;;;;;;;5007093;28;20183;-80
2022/11/04 10:02:24;;;;;;;18.37;11.17;;;;;;;;;;5006260;28;20192;-79
2022/11/04 10:05:09;;;;;;;22.47;11.27;;;;;;;;;;4978387;28;20231;-79
2022/11/04 10:07:59;;;;;;;20.00;11.70;;;;;;;;;;4977266;28;20184;-81
2022/11/04 10:10:44;;;;;;;17.23;10.90;;;;;;;;;;4991408;28;20196;-79
2022/11/04 10:13:16;;;;;;;17.33;11.00;;;;;;;;;;4973500;28;20204;-80
2022/11/04 10:15:56;;;;;;;15.83;10.30;;;;;;;;;;4991007;28;20183;-79
2022/11/04 10:18:42;;;;;;;18.63;11.20;;;;;;;;;;4985038;28;20211;-79
2022/11/04 10:21:18;;;;;;;18.23;10.87;;;;;;;;;;4945720;29;20229;-79
2022/11/04 10:23:57;;;;;;;16.50;10.70;;;;;;;;;;4943740;28;20220;-79
2022/11/04 10:26:41;;;;;;;19.33;10.07;;;;;;;;;;4948762;29;20308;-79
2022/11/04 10:29:11;;;;;;;16.77;10.70;;;;;;;;;;4949252;28;20534;-79
2022/11/04 10:31:38;;;;;;;15.63;10.47;;;;;;;;;;4947160;28;20245;-80
2022/11/04 10:34:14;;;;;;;16.80;10.60;;;;;;;;;;4952546;29;20192;-80
2022/11/04 10:36:41;;;;;;;20.70;11.17;;;;;;;;;;4950973;29;20212;-80
2022/11/04 10:39:17;;;;;;;17.57;10.97;;;;;;;;;;4946924;28;20193;-80
2022/11/04 10:41:44;;;;;;;17.03;9.83;;;;;;;;;;4941708;28;20184;-80
2022/11/04 10:44:13;;;;;;;15.50;10.00;;;;;;;;;;4948803;28;20221;-80
2022/11/04 10:46:42;;;;;;;19.03;11.00;;;;;;;;;;4936696;28;20181;-80
2022/11/04 10:49:26;;;;;;;15.80;10.43;;;;;;;;;;4948641;29;20228;-79
2022/11/04 10:51:53;;;;;;;18.97;10.73;;;;;;;;;;4950090;29;20188;-79
2022/11/04 10:54:20;;;;;;;20.30;11.27;;;;;;;;;;4945967;29;20201;-80
2022/11/04 10:56:53;;;;;;;17.07;10.37;;;;;;;;;;4949349;28;20193;-79
2022/11/04 10:59:23;;;;;;;15.80;10.00;;;;;;;;;;4989537;28;20203;-80
2022/11/04 11:01:50;;;;;;;16.13;10.33;;;;;;;;;;4991590;28;20183;-80
2022/11/04 11:04:36;;;;;;;16.57;10.53;;;;;;;;;;4976974;28;20200;-79
2022/11/04 11:07:04;;;;;;;19.80;10.27;;;;;;;;;;4990982;28;20196;-79
2022/11/04 11:09:32;;;;;;;17.60;10.47;;;;;;;;;;4987194;28;20939;-80
2022/11/04 11:12:19;;;;;;;15.80;10.13;;;;;;;;;;4991931;28;20188;-80
2022/11/04 11:14:46;;;;;;;18.50;11.07;;;;;;;;;;4987123;28;20180;-80
2022/11/04 11:17:17;;;;;;;16.73;11.07;;;;;;;;;;4980733;28;21071;-79
2022/11/04 11:19:45;;;;;;;19.93;9.80;;;;;;;;;;5003278;28;20188;-81
2022/11/04 11:22:27;;;;;;;13.77;9.70;;;;;;;;;;5004977;28;20235;-79
2022/11/04 11:24:53;;;;;;;14.30;9.50;;;;;;;;;;4989075;28;20569;-79
2022/11/04 11:27:21;;;;;;;17.13;9.57;;;;;;;;;;4981801;28;20263;-79
2022/11/04 11:29:54;;;;;;;13.07;9.60;;;;;;;;;;4983090;28;20613;-80
2022/11/04 11:32:20;;;;;;;13.50;9.43;;;;;;;;;;5006149;28;20196;-80
2022/11/04 11:34:47;;;;;;;14.43;9.47;;;;;;;;;;4988563;28;25570;-79
2022/11/04 11:37:21;;;;;;;13.60;9.07;;;;;;;;;;4986763;28;20176;-79
2022/11/04 11:39:47;;;;;;;14.90;8.63;;;;;;;;;;4991071;28;20218;-81
2022/11/04 11:42:18;;;;;;;18.33;9.50;;;;;;;;;;4983781;28;20192;-80
2022/11/04 11:44:52;;;;;;;13.43;10.07;;;;;;;;;;4979519;28;20211;-81
2022/11/04 11:47:26;;;;;;;15.67;9.17;;;;;;;;;;4985967;28;20261;-80
2022/11/04 11:50:11;;;;;;;15.50;10.40;;;;;;;;;;4974981;28;20183;-80
2022/11/04 11:52:38;;;;;;;13.43;9.83;;;;;;;;;;4983663;28;20587;-81
2022/11/04 11:55:19;;;;;;;19.20;10.50;;;;;;;;;;4990655;28;20207;-79
2022/11/04 11:58:04;;;;;;;16.67;10.17;;;;;;;;;;4989352;28;20176;-81
2022/11/04 12:00:32;;;;;;;12.13;9.00;;;;;;;;;;4990315;28;20195;-81
2022/11/04 12:03:29;;;;;;;15.67;9.57;;;;;;;;;;5005733;28;20218;-80
2022/11/04 12:05:55;;;;;;;15.03;10.30;;;;;;;;;;4988300;28;20242;-82
2022/11/04 12:08:21;;;;;;;13.40;9.60;;;;;;;;;;4988441;28;20227;-81
2022/11/04 12:11:07;;;;;;;13.17;9.77;;;;;;;;;;4977568;28;20260;-79
2022/11/04 12:13:43;;;;;;;12.90;9.90;;;;;;;;;;4979011;28;20192;-80
2022/11/04 12:16:19;;;;;;;16.80;9.83;;;;;;;;;;4990926;28;20183;-80
2022/11/04 12:18:45;;;;;;;15.53;9.80;;;;;;;;;;4990562;28;20183;-82
2022/11/04 12:21:11;;;;;;;13.77;9.97;;;;;;;;;;4982516;28;20553;-81
2022/11/04 12:23:53;;;;;;;16.70;10.37;;;;;;;;;;5001229;28;20946;-81
2022/11/04 12:26:38;;;;;;;16.27;10.00;;;;;;;;;;4980456;28;20294;-81
2022/11/04 12:29:16;;;;;;;17.37;10.60;;;;;;;;;;4985684;28;20539;-82
2022/11/04 12:31:51;;;;;;;18.93;10.27;;;;;;;;;;4989394;28;20191;-80
2022/11/04 12:34:27;;;;;;;15.93;9.63;;;;;;;;;;4971495;28;20536;-80
2022/11/04 12:36:59;;;;;;;15.33;9.93;;;;;;;;;;4983855;28;20600;-82
2022/11/04 12:39:42;;;;;;;14.97;9.43;;;;;;;;;;4987147;28;20179;-81
2022/11/04 12:42:11;;;;;;;15.50;9.90;;;;;;;;;;4984269;28;20212;-81
2022/11/04 12:44:43;;;;;;;13.57;9.47;;;;;;;;;;4988328;28;20208;-81
2022/11/04 12:47:12;;;;;;;16.63;10.80;;;;;;;;;;5006924;28;20246;-80
2022/11/04 12:49:38;;;;;;;17.20;10.37;;;;;;;;;;4990297;28;20251;-80
2022/11/04 12:52:07;;;;;;;13.83;9.33;;;;;;;;;;4991076;28;20176;-81
2022/11/04 12:54:33;;;;;;;12.00;9.27;;;;;;;;;;4988464;28;20192;-80
2022/11/04 12:57:11;;;;;;;17.00;10.43;;;;;;;;;;4990219;28;20609;-82
2022/11/04 12:59:43;;;;;;;14.07;9.90;;;;;;;;;;4984067;28;20270;-82
2022/11/04 13:02:30;;;;;;;19.40;10.17;;;;;;;;;;4988179;28;20202;-83
2022/11/04 13:05:00;;;;;;;14.83;10.17;;;;;;;;;;4998227;28;20203;-81
2022/11/04 13:07:32;;;;;;;12.73;9.93;;;;;;;;;;4993339;28;20204;-83
2022/11/04 13:10:06;;;;;;;14.50;9.53;;;;;;;;;;5007974;28;20186;-80
2022/11/04 13:12:36;;;;;;;16.67;9.33;;;;;;;;;;4990257;28;20187;-83
2022/11/04 13:15:05;;;;;;;16.70;9.73;;;;;;;;;;4980978;28;20197;-83
2022/11/04 13:17:33;;;;;;;12.00;9.67;;;;;;;;;;4982538;28;20192;-80
2022/11/04 13:20:14;;;;;;;16.10;8.87;;;;;;;;;;4989917;28;20704;-79
2022/11/04 13:22:45;;;;;;;14.77;9.20;;;;;;;;;;4994332;28;20289;-79
2022/11/04 13:25:11;;;;;;;14.60;9.50;;;;;;;;;;4995685;28;20215;-83
2022/11/04 13:27:39;;;;;;;13.27;9.30;;;;;;;;;;4991946;28;20196;-80
2022/11/04 13:30:05;;;;;;;18.30;9.33;;;;;;;;;;5009519;28;20645;-82
2022/11/04 13:32:35;;;;;;;17.73;10.77;;;;;;;;;;5007489;28;20208;-82
2022/11/04 13:35:07;;;;;;;12.83;9.57;;;;;;;;;;5007528;28;20188;-82
2022/11/04 13:37:38;;;;;;;13.20;9.97;;;;;;;;;;4993966;28;20267;-81
2022/11/04 13:40:11;;;;;;;15.90;10.17;;;;;;;;;;4991500;28;20164;-79
2022/11/04 13:42:46;;;;;;;13.23;9.07;;;;;;;;;;4987140;28;20273;-80
2022/11/04 13:45:14;;;;;;;16.23;9.23;;;;;;;;;;5006107;28;20282;-81
2022/11/04 13:47:49;;;;;;;12.97;9.87;;;;;;;;;;4985505;28;20223;-80
2022/11/04 13:50:35;;;;;;;14.30;8.83;;;;;;;;;;5006334;28;20271;-80
2022/11/04 13:53:02;;;;;;;16.03;9.30;;;;;;;;;;4994426;28;20187;-80
2022/11/04 13:55:28;;;;;;;16.33;10.37;;;;;;;;;;4993120;28;20960;-81
2022/11/04 13:57:59;;;;;;;14.03;9.50;;;;;;;;;;4993372;28;20559;-80
2022/11/04 14:00:26;;;;;;;13.50;9.53;;;;;;;;;;4991480;28;20192;-80
2022/11/04 14:02:53;;;;;;;14.13;9.87;;;;;;;;;;5005356;28;20246;-82
2022/11/04 14:05:30;;;;;;;14.30;9.60;;;;;;;;;;4982036;28;20261;-80
2022/11/04 14:08:01;;;;;;;18.97;10.47;;;;;;;;;;4979193;28;20183;-81
2022/11/04 14:10:46;;;;;;;18.03;10.03;;;;;;;;;;4992727;28;20207;-80
2022/11/04 14:13:32;;;;;;;13.90;9.30;;;;;;;;;;4992432;28;20175;-81
2022/11/04 14:16:17;;;;;;;18.00;9.77;;;;;;;;;;4990265;28;20271;-82
2022/11/04 14:18:44;;;;;;;13.20;9.17;;;;;;;;;;4984621;28;20274;-81
2022/11/04 14:21:12;;;;;;;18.43;9.93;;;;;;;;;;5007230;28;20226;-81
2022/11/04 14:23:38;;;;;;;14.70;9.77;;;;;;;;;;5007350;28;20207;-79
2022/11/04 14:26:06;;;;;;;14.77;9.60;;;;;;;;;;4978347;28;20214;-82
2022/11/04 14:28:33;;;;;;;12.80;9.13;;;;;;;;;;4993942;28;20180;-82
2022/11/04 14:31:07;;;;;;;16.57;9.17;;;;;;;;;;4990370;28;20258;-80
2022/11/04 14:33:33;;;;;;;17.53;9.20;;;;;;;;;;4991511;28;20216;-80
2022/11/04 14:36:18;;;;;;;15.10;9.47;;;;;;;;;;5003458;28;20199;-81
2022/11/04 14:38:44;;;;;;;16.13;9.67;;;;;;;;;;4982334;28;20190;-81
2022/11/04 14:41:13;;;;;;;17.90;10.03;;;;;;;;;;4988134;28;20610;-80
2022/11/04 14:43:44;;;;;;;20.23;9.80;;;;;;;;;;4989239;28;20176;-81
2022/11/04 14:46:11;;;;;;;15.33;9.60;;;;;;;;;;4989516;28;20286;-82
2022/11/04 14:48:41;;;;;;;15.07;10.07;;;;;;;;;;4989855;28;20195;-81
2022/11/04 14:51:21;;;;;;;16.27;10.10;;;;;;;;;;4991808;28;20637;-82
2022/11/04 14:53:48;;;;;;;14.47;9.93;;;;;;;;;;5005121;28;20271;-82
2022/11/04 14:56:20;;;;;;;15.60;9.40;;;;;;;;;;4978372;28;20210;-81
2022/11/04 14:58:58;;;;;;;13.97;9.60;;;;;;;;;;4994072;28;20233;-82
2022/11/04 15:01:25;;;;;;;17.17;9.70;;;;;;;;;;4988988;28;20186;-82
2022/11/04 15:03:53;;;;;;;15.57;8.73;;;;;;;;;;5005840;28;20687;-83
2022/11/04 15:06:24;;;;;;;13.50;9.00;;;;;;;;;;4995639;28;20623;-81
2022/11/04 15:08:51;;;;;;;13.07;8.83;;;;;;;;;;5008192;28;20194;-82
2022/11/04 15:12:49;;;;;;;12.43;9.00;;;;;;;;;;4992378;28;20232;-81
2022/11/04 15:14:12;;;;;;;12.27;8.90;;;;;;;;;;4978620;28;20198;-81
2022/11/04 15:16:38;;;;;;;14.03;8.50;;;;;;;;;;4991141;28;20258;-81